Springs, Pennsylvania
Current Conditions -  °F | °C
As of 2:15 AM on Saturday 29 Nov 2014 (Local Time) from K2G4 Reporting Station
Overcast Overcast  
Wind Chill: 14°   Ceiling: 5000
Heat Index: 23°   Visibility: 10mi
Dew Point: 10°   Wind: 8mph
Humidity: 59%   Direction: 200°SSW
Pressure: 30.1"   Gusts: NA
Location:  39.73°N, 79.15°W
Report Text: K2G4 290715Z AUTO 20007KT 10SM OVC050 M05/M12 A3010 RMK AO1
Loading
Personal Weather Stations






























Interactive Weather Map New forecast layout! Learn more

10-Day Weather Forecast

Advertisements
Track Severe Weather on mobile